createdAt,value
2022-10-12T00:01:26.375Z,101193.78
2022-10-12T00:04:28.327Z,101198.81
2022-10-12T00:07:30.024Z,101200.19
2022-10-12T00:10:31.625Z,101203.47
2022-10-12T00:13:33.738Z,101213.22
2022-10-12T00:16:35.357Z,101202.78
2022-10-12T00:19:37.401Z,101208.38
2022-10-12T00:22:39.222Z,101210.00
2022-10-12T00:25:42.347Z,101200.13
2022-10-12T00:28:44.647Z,101203.25
2022-10-12T00:31:46.273Z,101202.87
2022-10-12T00:34:47.854Z,101204.25
2022-10-12T00:37:54.692Z,101207.38
2022-10-12T00:40:56.634Z,101204.66
2022-10-12T00:43:58.963Z,101202.59
2022-10-12T00:47:07.900Z,101198.97
2022-10-12T00:50:26.051Z,101201.84
2022-10-12T00:53:32.267Z,101198.56
2022-10-12T00:56:38.630Z,101199.34
2022-10-12T00:59:48.283Z,101202.03
2022-10-12T01:02:53.108Z,101203.06
2022-10-12T01:05:55.719Z,101197.00
2022-10-12T01:08:58.165Z,101202.94
2022-10-12T01:12:00.294Z,101198.69
2022-10-12T01:15:02.908Z,101195.06
2022-10-12T01:18:12.141Z,101199.06
2022-10-12T01:21:21.562Z,101201.69
2022-10-12T01:24:43.091Z,101201.94
2022-10-12T01:27:52.428Z,101206.87
2022-10-12T01:31:08.955Z,101214.81
2022-10-12T01:34:36.731Z,101216.75
2022-10-12T01:37:48.967Z,101211.41
2022-10-12T01:41:32.075Z,101217.22
2022-10-12T01:44:34.142Z,101220.28
2022-10-12T01:47:38.760Z,101219.06
2022-10-12T01:50:50.858Z,101210.88
2022-10-12T01:54:11.612Z,101225.38
2022-10-12T01:57:20.603Z,101218.62
2022-10-12T02:00:22.367Z,101223.50
2022-10-12T02:04:10.590Z,101216.91
2022-10-12T02:07:22.451Z,101221.62
2022-10-12T02:10:37.524Z,101221.16
2022-10-12T02:13:44.704Z,101219.16
2022-10-12T02:16:52.096Z,101224.81
2022-10-12T02:19:58.110Z,101229.44
2022-10-12T02:23:02.202Z,101226.91
2022-10-12T02:26:05.262Z,101225.56
2022-10-12T02:29:12.001Z,101228.91
2022-10-12T02:32:28.689Z,101235.16
2022-10-12T02:35:37.440Z,101226.37
2022-10-12T02:38:47.710Z,101225.59
2022-10-12T02:42:01.143Z,101231.62
2022-10-12T02:45:08.167Z,101230.44
2022-10-12T02:48:14.445Z,101224.19
2022-10-12T02:51:17.806Z,101227.78
2022-10-12T02:54:20.743Z,101231.31
2022-10-12T02:57:22.600Z,101229.84
2022-10-12T03:00:24.196Z,101229.22
2022-10-12T03:03:25.783Z,101227.63
2022-10-12T03:06:27.804Z,101231.75
2022-10-12T03:09:29.802Z,101239.56
2022-10-12T03:12:31.582Z,101232.84
2022-10-12T03:15:33.427Z,101244.50
2022-10-12T03:18:35.793Z,101237.66
2022-10-12T03:21:37.468Z,101233.22
2022-10-12T03:24:39.453Z,101234.25
2022-10-12T03:27:41.295Z,101232.81
2022-10-12T03:30:44.553Z,101235.75
2022-10-12T03:33:46.502Z,101241.66
2022-10-12T03:36:48.078Z,101245.41
2022-10-12T03:39:50.330Z,101240.81
2022-10-12T03:42:51.929Z,101237.78
2022-10-12T03:45:54.255Z,101244.28
2022-10-12T03:48:56.194Z,101243.63
2022-10-12T03:51:58.468Z,101245.66
2022-10-12T03:55:00.136Z,101244.94
2022-10-12T03:58:02.009Z,101245.00
2022-10-12T04:01:03.864Z,101238.53
2022-10-12T04:04:05.941Z,101247.09
2022-10-12T04:07:08.014Z,101239.50
2022-10-12T04:10:09.719Z,101235.62
2022-10-12T04:13:11.871Z,101233.13
2022-10-12T04:16:13.923Z,101231.31
2022-10-12T04:19:15.653Z,101232.25
2022-10-12T04:22:17.736Z,101232.31
2022-10-12T04:25:19.416Z,101239.88
2022-10-12T04:28:21.304Z,101240.97
2022-10-12T04:31:22.992Z,101241.62
2022-10-12T04:34:24.590Z,101245.06
2022-10-12T04:37:27.730Z,101245.00
2022-10-12T04:40:29.660Z,101245.84
2022-10-12T04:43:31.251Z,101243.13
2022-10-12T04:46:33.345Z,101244.75
2022-10-12T04:49:35.199Z,101248.59
2022-10-12T04:52:36.770Z,101251.00
2022-10-12T04:55:38.328Z,101253.69
2022-10-12T04:58:40.277Z,101251.47
2022-10-12T05:01:42.167Z,101250.41
2022-10-12T05:04:44.326Z,101258.03
2022-10-12T05:07:46.013Z,101256.19
2022-10-12T05:10:48.125Z,101259.31
2022-10-12T05:13:49.686Z,101257.47
2022-10-12T05:16:51.600Z,101257.25
2022-10-12T05:19:53.290Z,101266.75
2022-10-12T05:22:57.710Z,101269.38
2022-10-12T05:25:59.351Z,101258.25
2022-10-12T05:29:01.627Z,101268.00
2022-10-12T05:32:03.763Z,101266.16
2022-10-12T05:35:06.207Z,101261.19
2022-10-12T05:38:08.008Z,101269.06
2022-10-12T05:41:09.673Z,101263.91
2022-10-12T05:44:11.553Z,101269.03
2022-10-12T05:47:13.265Z,101272.88
2022-10-12T05:50:14.903Z,101273.81
2022-10-12T05:53:16.730Z,101278.94
2022-10-12T05:56:18.561Z,101281.50
2022-10-12T05:59:20.364Z,101286.59
2022-10-12T06:02:22.380Z,101287.87
2022-10-12T06:05:25.126Z,101292.41
2022-10-12T06:08:27.319Z,101280.56
2022-10-12T06:11:31.462Z,101290.31
2022-10-12T06:14:36.091Z,101292.75
2022-10-12T06:17:37.679Z,101290.00
2022-10-12T06:20:39.799Z,101289.50
2022-10-12T06:23:44.191Z,101288.38
2022-10-12T06:26:45.787Z,101291.22
2022-10-12T06:29:47.709Z,101295.16
2022-10-12T06:32:49.625Z,101294.87
2022-10-12T06:35:51.843Z,101302.28
2022-10-12T06:38:53.637Z,101303.63
2022-10-12T06:41:55.178Z,101299.16
2022-10-12T06:44:57.340Z,101305.97
2022-10-12T06:47:58.934Z,101304.75
2022-10-12T06:51:00.981Z,101300.94
2022-10-12T06:54:02.573Z,101306.38
2022-10-12T06:57:05.954Z,101310.41
2022-10-12T07:00:08.748Z,101319.19
2022-10-12T07:03:12.785Z,101318.19
2022-10-12T07:06:15.023Z,101321.81
2022-10-12T07:09:17.716Z,101326.91
2022-10-12T07:12:19.450Z,101320.94
2022-10-12T07:15:21.221Z,101327.72
2022-10-12T07:18:22.856Z,101323.16
2022-10-12T07:21:24.455Z,101319.72
2022-10-12T07:24:26.395Z,101323.56
2022-10-12T07:27:28.086Z,101319.44
2022-10-12T07:30:29.642Z,101316.06
2022-10-12T07:33:35.752Z,101321.81
2022-10-12T07:36:58.029Z,101319.72
2022-10-12T07:39:58.861Z,101324.28
2022-10-12T07:43:15.136Z,101321.31
2022-10-12T07:46:17.688Z,101320.41
2022-10-12T07:49:19.443Z,101317.88
2022-10-12T07:52:21.494Z,101321.47
2022-10-12T07:55:23.059Z,101316.75
2022-10-12T07:58:24.820Z,101325.94
2022-10-12T08:01:29.893Z,101324.66
2022-10-12T08:04:31.871Z,101325.31
2022-10-12T08:07:33.496Z,101322.91
2022-10-12T08:10:36.049Z,101320.06
2022-10-12T08:13:38.289Z,101326.34
2022-10-12T08:16:39.974Z,101322.69
2022-10-12T08:19:41.610Z,101318.56
2022-10-12T08:22:43.611Z,101326.97
2022-10-12T08:25:53.222Z,101327.53
2022-10-12T08:28:55.202Z,101329.59
2022-10-12T08:31:56.879Z,101331.94
2022-10-12T08:34:59.121Z,101330.47
2022-10-12T08:38:00.689Z,101324.66
2022-10-12T08:41:11.345Z,101324.13
2022-10-12T08:44:21.290Z,101325.13
2022-10-12T08:47:40.766Z,101320.75
2022-10-12T08:50:51.524Z,101323.81
2022-10-12T08:54:12.355Z,101322.75
2022-10-12T08:57:17.696Z,101330.75
2022-10-12T09:00:20.040Z,101326.00
2022-10-12T09:03:38.967Z,101323.41
2022-10-12T09:06:43.340Z,101323.41
2022-10-12T09:09:45.265Z,101322.66
2022-10-12T09:13:14.097Z,101317.22
2022-10-12T09:16:26.070Z,101323.25
2022-10-12T09:19:37.299Z,101321.81
2022-10-12T09:22:39.757Z,101323.38
2022-10-12T09:25:42.749Z,101320.66
2022-10-12T09:29:06.117Z,101316.38
2022-10-12T09:32:23.506Z,101319.84
2022-10-12T09:35:26.105Z,101318.34
2022-10-12T09:38:27.994Z,101319.22
2022-10-12T09:41:34.476Z,101317.56
2022-10-12T09:44:49.234Z,101320.81
2022-10-12T09:48:10.480Z,101315.69
2022-10-12T09:51:16.882Z,101314.91
2022-10-12T09:54:22.419Z,101314.06
2022-10-12T09:57:46.399Z,101322.06
2022-10-12T10:01:12.767Z,101315.63
2022-10-12T10:04:24.297Z,101322.00
2022-10-12T10:07:30.682Z,101311.19
2022-10-12T10:10:33.748Z,101314.50
2022-10-12T10:13:38.009Z,101317.25
2022-10-12T10:16:48.620Z,101322.13
2022-10-12T10:19:51.960Z,101316.41
2022-10-12T10:22:53.646Z,101319.88
2022-10-12T10:26:06.418Z,101314.47
2022-10-12T10:29:32.929Z,101317.34
2022-10-12T10:32:34.871Z,101316.97
2022-10-12T10:35:36.943Z,101312.09
2022-10-12T10:39:16.498Z,101314.06
2022-10-12T10:42:22.019Z,101307.59
2022-10-12T10:45:26.954Z,101302.72
2022-10-12T10:48:31.698Z,101320.06
2022-10-12T10:51:51.450Z,101316.13
2022-10-12T10:55:16.739Z,101318.94
2022-10-12T10:58:34.599Z,101319.91
2022-10-12T11:01:45.954Z,101303.69
2022-10-12T11:04:53.558Z,101307.94
2022-10-12T11:07:58.679Z,101300.78
2022-10-12T11:11:11.467Z,101312.13
2022-10-12T11:14:18.120Z,101301.19
2022-10-12T11:17:29.373Z,101300.34
2022-10-12T11:20:39.974Z,101300.00
2022-10-12T11:23:52.192Z,101302.00
2022-10-12T11:27:19.747Z,101295.19
2022-10-12T11:30:24.231Z,101287.87
2022-10-12T11:33:35.159Z,101299.91
2022-10-12T11:36:51.277Z,101289.81
2022-10-12T11:40:08.468Z,101294.16
2022-10-12T11:43:19.945Z,101286.00
2022-10-12T11:46:34.950Z,101284.16
2022-10-12T11:49:47.431Z,101292.13
2022-10-12T11:52:50.838Z,101289.72
2022-10-12T11:55:55.498Z,101291.06
2022-10-12T11:59:19.000Z,101281.66
2022-10-12T12:02:23.578Z,101280.63
2022-10-12T12:05:31.901Z,101285.28
2022-10-12T12:08:39.867Z,101277.87
2022-10-12T12:11:41.467Z,101282.94
2022-10-12T12:14:50.800Z,101279.69
2022-10-12T12:18:10.908Z,101281.03
2022-10-12T12:21:12.838Z,101273.94
2022-10-12T12:24:17.177Z,101271.13
2022-10-12T12:27:35.196Z,101269.50
2022-10-12T12:30:40.239Z,101269.47
2022-10-12T12:33:46.490Z,101273.25
2022-10-12T12:36:51.936Z,101262.84
2022-10-12T12:39:56.389Z,101261.25
2022-10-12T12:43:28.898Z,101255.34
2022-10-12T12:46:52.594Z,101256.97
2022-10-12T12:49:57.789Z,101255.56
2022-10-12T12:53:14.664Z,101265.03
2022-10-12T12:57:05.831Z,101267.28
2022-10-12T13:00:16.071Z,101264.13
2022-10-12T13:03:36.226Z,101258.00
2022-10-12T13:07:08.899Z,101258.97
2022-10-12T13:10:29.173Z,101267.22
2022-10-12T13:13:45.577Z,101256.75
2022-10-12T13:20:38.572Z,101244.88
2022-10-12T13:23:40.774Z,101245.78
2022-10-12T13:26:46.825Z,101253.97
2022-10-12T13:29:57.191Z,101251.06
2022-10-12T13:33:02.755Z,101246.22
2022-10-12T13:36:08.149Z,101246.63
2022-10-12T13:39:21.685Z,101248.28
2022-10-12T13:42:31.245Z,101240.47
2022-10-12T13:45:33.030Z,101240.50
2022-10-12T13:48:58.302Z,101230.81
2022-10-12T13:51:59.353Z,101231.44
2022-10-12T13:55:14.533Z,101224.56
2022-10-12T13:58:27.307Z,101228.94
2022-10-12T14:01:29.333Z,101229.25
2022-10-12T14:04:33.145Z,101227.06
2022-10-12T14:07:38.269Z,101221.09
2022-10-12T14:10:41.602Z,101220.09
2022-10-12T14:13:45.793Z,101223.81
2022-10-12T14:16:50.046Z,101218.97
2022-10-12T14:19:55.487Z,101214.38
2022-10-12T14:23:00.207Z,101215.16
2022-10-12T14:26:02.050Z,101220.47
2022-10-12T14:29:32.638Z,101218.31
2022-10-12T14:32:42.459Z,101212.41
2022-10-12T14:35:49.643Z,101208.88
2022-10-12T14:38:53.156Z,101207.13
2022-10-12T14:41:54.805Z,101203.53
2022-10-12T14:44:56.931Z,101209.59
2022-10-12T14:48:00.261Z,101208.75
2022-10-12T14:51:01.901Z,101209.59
2022-10-12T14:54:05.172Z,101211.09
2022-10-12T14:57:17.678Z,101208.34
2022-10-12T15:00:22.276Z,101206.87
2022-10-12T15:03:23.906Z,101206.53
2022-10-12T15:06:25.759Z,101208.28
2022-10-12T15:09:27.664Z,101203.56
2022-10-12T15:12:33.081Z,101209.38
2022-10-12T15:15:42.907Z,101206.44
2022-10-12T15:18:44.804Z,101214.94
2022-10-12T15:21:47.829Z,101213.88
2022-10-12T15:24:50.813Z,101219.25
2022-10-12T15:27:52.413Z,101222.59
2022-10-12T15:34:16.186Z,101224.56
2022-10-12T15:37:18.294Z,101216.66
2022-10-12T15:40:20.935Z,101208.56
2022-10-12T15:43:22.511Z,101215.25
2022-10-12T15:46:24.544Z,101205.03
2022-10-12T15:49:26.770Z,101216.28
2022-10-12T15:52:28.362Z,101211.59
2022-10-12T15:55:31.403Z,101211.78
2022-10-12T15:58:33.133Z,101207.97
2022-10-12T16:01:36.989Z,101213.88
2022-10-12T16:04:38.651Z,101207.56
2022-10-12T16:07:40.233Z,101214.19
2022-10-12T16:10:42.318Z,101219.94
2022-10-12T16:13:49.983Z,101214.53
2022-10-12T16:16:54.297Z,101212.69
2022-10-12T16:19:55.867Z,101221.19
2022-10-12T16:22:58.949Z,101220.34
2022-10-12T16:26:03.685Z,101225.72
2022-10-12T16:29:05.814Z,101226.13
2022-10-12T16:32:07.507Z,101226.34
2022-10-12T16:35:10.024Z,101231.81
2022-10-12T16:38:11.902Z,101227.41
2022-10-12T16:41:17.298Z,101230.72
2022-10-12T16:44:19.024Z,101223.16
2022-10-12T16:47:20.785Z,101226.75
2022-10-12T16:50:24.590Z,101231.62
2022-10-12T16:53:26.924Z,101231.34
2022-10-12T16:56:28.542Z,101230.47
2022-10-12T16:59:30.361Z,101232.44
2022-10-12T17:02:32.259Z,101230.00
2022-10-12T17:05:34.137Z,101233.94
2022-10-12T17:08:38.940Z,101237.53
2022-10-12T17:11:41.185Z,101239.44
2022-10-12T17:14:42.957Z,101232.09
2022-10-12T17:17:44.716Z,101235.34
2022-10-12T17:20:48.251Z,101233.47
2022-10-12T17:23:55.459Z,101238.81
2022-10-12T17:26:59.089Z,101238.62
2022-10-12T17:30:00.877Z,101237.69
2022-10-12T17:33:02.476Z,101243.13
2022-10-12T17:36:09.103Z,101238.88
2022-10-12T17:39:11.132Z,101234.31
2022-10-12T17:42:13.707Z,101228.22
2022-10-12T17:45:15.704Z,101240.44
2022-10-12T17:48:17.302Z,101239.31
2022-10-12T17:51:19.258Z,101248.91
2022-10-12T17:54:22.293Z,101248.06
2022-10-12T17:57:24.282Z,101243.09
2022-10-12T18:00:26.522Z,101250.00
2022-10-12T18:03:28.916Z,101256.75
2022-10-12T18:06:31.898Z,101253.25
2022-10-12T18:09:33.561Z,101254.59
2022-10-12T18:12:35.561Z,101249.88
2022-10-12T18:15:43.949Z,101249.59
2022-10-12T18:18:45.911Z,101254.69
2022-10-12T18:21:47.703Z,101255.41
2022-10-12T18:24:49.828Z,101259.81
2022-10-12T18:27:52.465Z,101252.44
2022-10-12T18:30:54.334Z,101258.69
2022-10-12T18:33:57.450Z,101261.19
2022-10-12T18:37:00.083Z,101263.84
2022-10-12T18:40:02.455Z,101254.34
2022-10-12T18:43:05.393Z,101247.78
2022-10-12T18:46:09.946Z,101250.06
2022-10-12T18:49:12.438Z,101256.66
2022-10-12T18:52:15.814Z,101254.09
2022-10-12T18:55:18.158Z,101251.00
2022-10-12T18:58:20.756Z,101253.66
2022-10-12T19:01:25.246Z,101255.00
2022-10-12T19:04:28.021Z,101254.41
2022-10-12T19:07:30.277Z,101261.13
2022-10-12T19:10:35.689Z,101260.22
2022-10-12T19:13:39.083Z,101261.44
2022-10-12T19:16:42.722Z,101256.72
2022-10-12T19:19:45.617Z,101271.69
2022-10-12T19:22:47.946Z,101272.09
2022-10-12T19:25:50.352Z,101263.44
2022-10-12T19:28:55.365Z,101272.22
2022-10-12T19:31:57.520Z,101268.66
2022-10-12T19:34:59.822Z,101279.25
2022-10-12T19:38:01.999Z,101272.97
2022-10-12T19:41:06.227Z,101275.72
2022-10-12T19:44:08.492Z,101269.91
2022-10-12T19:47:11.417Z,101274.44
2022-10-12T19:50:13.436Z,101267.31
2022-10-12T19:53:15.501Z,101272.13
2022-10-12T19:56:21.405Z,101265.53
2022-10-12T19:59:23.857Z,101266.03
2022-10-12T20:02:26.314Z,101260.69
2022-10-12T20:05:28.604Z,101261.41
2022-10-12T20:08:30.910Z,101269.81
2022-10-12T20:11:33.034Z,101264.16
2022-10-12T20:14:34.680Z,101270.91
2022-10-12T20:17:37.882Z,101262.50
2022-10-12T20:20:43.095Z,101270.44
2022-10-12T20:23:45.351Z,101264.22
2022-10-12T20:26:47.315Z,101264.84
2022-10-12T20:29:49.185Z,101270.84
2022-10-12T20:32:55.326Z,101261.56
2022-10-12T20:35:57.373Z,101268.97
2022-10-12T20:39:00.050Z,101266.00
2022-10-12T20:42:01.676Z,101269.31
2022-10-12T20:45:04.106Z,101266.81
2022-10-12T20:48:06.453Z,101267.25
2022-10-12T20:51:09.919Z,101274.03
2022-10-12T20:54:18.607Z,101264.16
2022-10-12T20:57:20.357Z,101275.94
2022-10-12T21:00:22.416Z,101269.69
2022-10-12T21:03:24.077Z,101276.09
2022-10-12T21:06:26.917Z,101272.16
2022-10-12T21:09:28.611Z,101280.28
2022-10-12T21:12:30.610Z,101270.84
2022-10-12T21:15:32.180Z,101272.59
2022-10-12T21:18:37.838Z,101277.94
2022-10-12T21:21:39.852Z,101278.44
2022-10-12T21:24:41.488Z,101284.06
2022-10-12T21:27:43.677Z,101284.69
2022-10-12T21:30:46.823Z,101278.44
2022-10-12T21:33:48.542Z,101283.25
2022-10-12T21:36:50.512Z,101276.22
2022-10-12T21:39:54.520Z,101273.38
2022-10-12T21:42:59.333Z,101272.78
2022-10-12T21:46:05.632Z,101268.53
2022-10-12T21:49:08.765Z,101261.38
2022-10-12T21:52:10.465Z,101266.44
2022-10-12T21:55:12.039Z,101264.37
2022-10-12T21:58:13.877Z,101264.22
2022-10-12T22:01:18.433Z,101263.69
2022-10-12T22:04:20.031Z,101264.44
2022-10-12T22:07:21.956Z,101262.28
2022-10-12T22:10:23.576Z,101270.66
2022-10-12T22:13:25.275Z,101271.94
2022-10-12T22:16:29.224Z,101273.59
2022-10-12T22:19:31.114Z,101281.47
2022-10-12T22:22:33.238Z,101277.34
2022-10-12T22:25:35.253Z,101275.44
2022-10-12T22:28:36.847Z,101280.56
2022-10-12T22:31:40.200Z,101273.94
2022-10-12T22:34:41.760Z,101276.50
2022-10-12T22:37:43.574Z,101264.06
2022-10-12T22:40:54.399Z,101262.28
2022-10-12T22:43:57.478Z,101269.28
2022-10-12T22:46:59.064Z,101271.59
2022-10-12T22:50:00.864Z,101263.03
2022-10-12T22:53:02.654Z,101252.84
2022-10-12T22:56:11.944Z,101251.44
2022-10-12T22:59:15.650Z,101262.88
2022-10-12T23:02:17.861Z,101257.44
2022-10-12T23:05:20.121Z,101259.12
2022-10-12T23:08:21.687Z,101258.13
2022-10-12T23:11:26.751Z,101260.34
2022-10-12T23:14:28.558Z,101260.03
2022-10-12T23:17:30.104Z,101265.56
2022-10-12T23:20:31.664Z,101255.22
2022-10-12T23:23:34.893Z,101257.81
2022-10-12T23:26:36.582Z,101255.50
2022-10-12T23:29:38.826Z,101258.84
2022-10-12T23:32:40.949Z,101253.06
2022-10-12T23:35:42.628Z,101250.44
2022-10-12T23:38:45.686Z,101254.69
2022-10-12T23:41:47.906Z,101257.25
2022-10-12T23:44:49.878Z,101260.66
2022-10-12T23:47:51.443Z,101259.00
2022-10-12T23:50:53.630Z,101262.72
2022-10-12T23:53:55.548Z,101259.75
2022-10-12T23:56:57.301Z,101261.44
2022-10-12T23:59:59.252Z,101262.16
